sensor_id;sensor_type;location;lat;lon;timestamp;pressure;altitude;pressure_sealevel;temperature
70831;BMP180;58451;51.550;7.208;2023-03-11T00:00:07;99691.00;;;0.32
70831;BMP180;58451;51.550;7.208;2023-03-11T00:01:44;99696.00;;;0.32
70831;BMP180;58451;51.550;7.208;2023-03-11T00:03:17;99701.20;;;0.34
70831;BMP180;58451;51.550;7.208;2023-03-11T00:04:50;99702.40;;;0.36
70831;BMP180;58451;51.550;7.208;2023-03-11T00:06:21;99709.40;;;0.38
70831;BMP180;58451;51.550;7.208;2023-03-11T00:07:54;99707.40;;;0.40
70831;BMP180;58451;51.550;7.208;2023-03-11T00:09:26;99716.20;;;0.40
70831;BMP180;58451;51.550;7.208;2023-03-11T00:10:59;99714.80;;;0.40
70831;BMP180;58451;51.550;7.208;2023-03-11T00:12:31;99721.60;;;0.40
70831;BMP180;58451;51.550;7.208;2023-03-11T00:14:03;99726.40;;;0.40
70831;BMP180;58451;51.550;7.208;2023-03-11T00:15:36;99731.00;;;0.40
70831;BMP180;58451;51.550;7.208;2023-03-11T00:17:08;99732.40;;;0.40
70831;BMP180;58451;51.550;7.208;2023-03-11T00:18:39;99737.60;;;0.40
70831;BMP180;58451;51.550;7.208;2023-03-11T00:20:24;99739.20;;;0.40
70831;BMP180;58451;51.550;7.208;2023-03-11T00:21:56;99747.80;;;0.40
70831;BMP180;58451;51.550;7.208;2023-03-11T00:23:29;99747.60;;;0.40
70831;BMP180;58451;51.550;7.208;2023-03-11T00:25:01;99756.40;;;0.40
70831;BMP180;58451;51.550;7.208;2023-03-11T00:26:33;99756.60;;;0.40
70831;BMP180;58451;51.550;7.208;2023-03-11T00:28:06;99758.40;;;0.40
70831;BMP180;58451;51.550;7.208;2023-03-11T00:29:38;99762.20;;;0.40
70831;BMP180;58451;51.550;7.208;2023-03-11T00:31:13;99761.40;;;0.40
70831;BMP180;58451;51.550;7.208;2023-03-11T00:32:55;99764.60;;;0.40
70831;BMP180;58451;51.550;7.208;2023-03-11T00:34:27;99766.20;;;0.40
70831;BMP180;58451;51.550;7.208;2023-03-11T00:35:59;99760.40;;;0.40
70831;BMP180;58451;51.550;7.208;2023-03-11T00:37:31;99770.80;;;0.40
70831;BMP180;58451;51.550;7.208;2023-03-11T00:39:04;99768.20;;;0.40
70831;BMP180;58451;51.550;7.208;2023-03-11T00:40:44;99771.40;;;0.40
70831;BMP180;58451;51.550;7.208;2023-03-11T00:42:17;99776.20;;;0.40
70831;BMP180;58451;51.550;7.208;2023-03-11T00:43:48;99774.20;;;0.40
70831;BMP180;58451;51.550;7.208;2023-03-11T00:45:20;99778.60;;;0.38
70831;BMP180;58451;51.550;7.208;2023-03-11T00:46:52;99776.60;;;0.32
70831;BMP180;58451;51.550;7.208;2023-03-11T00:48:24;99782.00;;;0.30
70831;BMP180;58451;51.550;7.208;2023-03-11T00:49:56;99783.80;;;0.30
70831;BMP180;58451;51.550;7.208;2023-03-11T00:51:28;99783.20;;;0.30
70831;BMP180;58451;51.550;7.208;2023-03-11T00:53:01;99782.40;;;0.30
70831;BMP180;58451;51.550;7.208;2023-03-11T00:54:33;99785.00;;;0.30
70831;BMP180;58451;51.550;7.208;2023-03-11T00:56:10;99786.40;;;0.30
70831;BMP180;58451;51.550;7.208;2023-03-11T00:57:44;99783.80;;;0.30
70831;BMP180;58451;51.550;7.208;2023-03-11T00:59:16;99789.60;;;0.30
70831;BMP180;58451;51.550;7.208;2023-03-11T01:00:48;99790.20;;;0.30
70831;BMP180;58451;51.550;7.208;2023-03-11T01:02:21;99790.20;;;0.30
70831;BMP180;58451;51.550;7.208;2023-03-11T01:03:53;99793.20;;;0.30
70831;BMP180;58451;51.550;7.208;2023-03-11T01:05:30;99800.20;;;0.30
70831;BMP180;58451;51.550;7.208;2023-03-11T01:07:02;99799.40;;;0.30
70831;BMP180;58451;51.550;7.208;2023-03-11T01:08:34;99799.60;;;0.30
70831;BMP180;58451;51.550;7.208;2023-03-11T01:10:09;99804.20;;;0.30
70831;BMP180;58451;51.550;7.208;2023-03-11T01:11:41;99811.60;;;0.30
70831;BMP180;58451;51.550;7.208;2023-03-11T01:13:13;99815.80;;;0.30
70831;BMP180;58451;51.550;7.208;2023-03-11T01:14:45;99818.40;;;0.30
70831;BMP180;58451;51.550;7.208;2023-03-11T01:16:17;99823.20;;;0.30
70831;BMP180;58451;51.550;7.208;2023-03-11T01:17:49;99823.20;;;0.30
70831;BMP180;58451;51.550;7.208;2023-03-11T01:19:21;99824.40;;;0.30
70831;BMP180;58451;51.550;7.208;2023-03-11T01:20:53;99821.20;;;0.32
70831;BMP180;58451;51.550;7.208;2023-03-11T01:22:25;99823.20;;;0.30
70831;BMP180;58451;51.550;7.208;2023-03-11T01:23:57;99824.60;;;0.38
70831;BMP180;58451;51.550;7.208;2023-03-11T01:25:29;99826.20;;;0.40
70831;BMP180;58451;51.550;7.208;2023-03-11T01:27:01;99828.80;;;0.40
70831;BMP180;58451;51.550;7.208;2023-03-11T01:28:33;99826.00;;;0.40
70831;BMP180;58451;51.550;7.208;2023-03-11T01:30:06;99825.40;;;0.40
70831;BMP180;58451;51.550;7.208;2023-03-11T01:31:38;99821.60;;;0.40
70831;BMP180;58451;51.550;7.208;2023-03-11T01:33:18;99823.80;;;0.40
70831;BMP180;58451;51.550;7.208;2023-03-11T01:34:50;99827.80;;;0.40
70831;BMP180;58451;51.550;7.208;2023-03-11T01:36:22;99823.40;;;0.40
70831;BMP180;58451;51.550;7.208;2023-03-11T01:37:54;99830.00;;;0.40
70831;BMP180;58451;51.550;7.208;2023-03-11T01:39:26;99829.40;;;0.40
70831;BMP180;58451;51.550;7.208;2023-03-11T01:40:58;99829.60;;;0.40
70831;BMP180;58451;51.550;7.208;2023-03-11T01:42:30;99836.40;;;0.40
70831;BMP180;58451;51.550;7.208;2023-03-11T01:44:02;99835.40;;;0.40
70831;BMP180;58451;51.550;7.208;2023-03-11T01:45:41;99835.40;;;0.40
70831;BMP180;58451;51.550;7.208;2023-03-11T01:47:38;99836.00;;;0.44
70831;BMP180;58451;51.550;7.208;2023-03-11T01:49:11;99840.80;;;0.44
70831;BMP180;58451;51.550;7.208;2023-03-11T01:50:48;99839.80;;;0.42
70831;BMP180;58451;51.550;7.208;2023-03-11T01:52:21;99840.20;;;0.44
70831;BMP180;58451;51.550;7.208;2023-03-11T01:53:56;99842.40;;;0.50
70831;BMP180;58451;51.550;7.208;2023-03-11T01:55:31;99840.40;;;0.50
70831;BMP180;58451;51.550;7.208;2023-03-11T01:57:09;99837.60;;;0.50
70831;BMP180;58451;51.550;7.208;2023-03-11T01:58:45;99844.60;;;0.50
70831;BMP180;58451;51.550;7.208;2023-03-11T02:00:21;99843.20;;;0.50
70831;BMP180;58451;51.550;7.208;2023-03-11T02:02:25;99850.40;;;0.50
70831;BMP180;58451;51.550;7.208;2023-03-11T02:04:02;99843.60;;;0.44
70831;BMP180;58451;51.550;7.208;2023-03-11T02:05:36;99847.00;;;0.42
70831;BMP180;58451;51.550;7.208;2023-03-11T02:07:10;99852.40;;;0.40
70831;BMP180;58451;51.550;7.208;2023-03-11T02:08:43;99855.80;;;0.40
70831;BMP180;58451;51.550;7.208;2023-03-11T02:10:16;99859.60;;;0.40
70831;BMP180;58451;51.550;7.208;2023-03-11T02:11:50;99858.20;;;0.40
70831;BMP180;58451;51.550;7.208;2023-03-11T02:13:22;99853.60;;;0.40
70831;BMP180;58451;51.550;7.208;2023-03-11T02:14:54;99848.60;;;0.40
70831;BMP180;58451;51.550;7.208;2023-03-11T02:16:26;99851.60;;;0.40
70831;BMP180;58451;51.550;7.208;2023-03-11T02:18:02;99853.60;;;0.40
70831;BMP180;58451;51.550;7.208;2023-03-11T02:20:04;99854.20;;;0.40
70831;BMP180;58451;51.550;7.208;2023-03-11T02:21:38;99852.00;;;0.40
70831;BMP180;58451;51.550;7.208;2023-03-11T02:23:16;99850.40;;;0.40
70831;BMP180;58451;51.550;7.208;2023-03-11T02:25:04;99851.40;;;0.40
70831;BMP180;58451;51.550;7.208;2023-03-11T02:26:57;99850.00;;;0.34
70831;BMP180;58451;51.550;7.208;2023-03-11T02:28:35;99848.60;;;0.30
70831;BMP180;58451;51.550;7.208;2023-03-11T02:30:11;99849.40;;;0.30
70831;BMP180;58451;51.550;7.208;2023-03-11T02:31:45;99849.80;;;0.30
70831;BMP180;58451;51.550;7.208;2023-03-11T02:33:18;99848.20;;;0.26
70831;BMP180;58451;51.550;7.208;2023-03-11T02:34:50;99852.40;;;0.20
70831;BMP180;58451;51.550;7.208;2023-03-11T02:36:39;99847.40;;;0.20
70831;BMP180;58451;51.550;7.208;2023-03-11T02:38:14;99847.00;;;0.20
70831;BMP180;58451;51.550;7.208;2023-03-11T02:39:50;99848.60;;;0.20
70831;BMP180;58451;51.550;7.208;2023-03-11T02:41:23;99854.00;;;0.18
70831;BMP180;58451;51.550;7.208;2023-03-11T02:42:58;99850.00;;;0.12
70831;BMP180;58451;51.550;7.208;2023-03-11T02:44:32;99849.60;;;0.10
70831;BMP180;58451;51.550;7.208;2023-03-11T02:46:06;99857.60;;;0.10
70831;BMP180;58451;51.550;7.208;2023-03-11T02:47:40;99857.40;;;0.10
70831;BMP180;58451;51.550;7.208;2023-03-11T02:49:14;99852.00;;;0.10
70831;BMP180;58451;51.550;7.208;2023-03-11T02:50:46;99857.60;;;0.10
70831;BMP180;58451;51.550;7.208;2023-03-11T02:52:19;99855.00;;;0.10
70831;BMP180;58451;51.550;7.208;2023-03-11T02:53:58;99854.40;;;0.10
70831;BMP180;58451;51.550;7.208;2023-03-11T02:55:32;99855.80;;;0.10
70831;BMP180;58451;51.550;7.208;2023-03-11T02:57:04;99857.80;;;0.06
70831;BMP180;58451;51.550;7.208;2023-03-11T02:58:36;99863.20;;;0.00
70831;BMP180;58451;51.550;7.208;2023-03-11T03:00:09;99869.00;;;0.00
70831;BMP180;58451;51.550;7.208;2023-03-11T03:01:47;99873.80;;;0.00
70831;BMP180;58451;51.550;7.208;2023-03-11T03:03:19;99876.00;;;0.00
70831;BMP180;58451;51.550;7.208;2023-03-11T03:04:51;99878.80;;;0.00
70831;BMP180;58451;51.550;7.208;2023-03-11T03:06:23;99877.20;;;0.00
70831;BMP180;58451;51.550;7.208;2023-03-11T03:07:55;99879.60;;;-0.04
70831;BMP180;58451;51.550;7.208;2023-03-11T03:09:27;99882.20;;;-0.10
70831;BMP180;58451;51.550;7.208;2023-03-11T03:10:59;99881.80;;;-0.10
70831;BMP180;58451;51.550;7.208;2023-03-11T03:12:31;99884.80;;;-0.10
70831;BMP180;58451;51.550;7.208;2023-03-11T03:14:03;99893.40;;;-0.10
70831;BMP180;58451;51.550;7.208;2023-03-11T03:15:35;99891.80;;;-0.10
70831;BMP180;58451;51.550;7.208;2023-03-11T03:17:07;99896.20;;;-0.10
70831;BMP180;58451;51.550;7.208;2023-03-11T03:18:39;99890.80;;;-0.10
70831;BMP180;58451;51.550;7.208;2023-03-11T03:20:13;99892.20;;;-0.10
70831;BMP180;58451;51.550;7.208;2023-03-11T03:21:49;99895.00;;;-0.10
70831;BMP180;58451;51.550;7.208;2023-03-11T03:23:22;99894.20;;;-0.12
70831;BMP180;58451;51.550;7.208;2023-03-11T03:24:54;99896.60;;;-0.16
70831;BMP180;58451;51.550;7.208;2023-03-11T03:26:26;99896.20;;;-0.12
70831;BMP180;58451;51.550;7.208;2023-03-11T03:27:58;99895.60;;;-0.12
70831;BMP180;58451;51.550;7.208;2023-03-11T03:29:30;99896.60;;;-0.10
70831;BMP180;58451;51.550;7.208;2023-03-11T03:31:09;99893.20;;;-0.10
70831;BMP180;58451;51.550;7.208;2023-03-11T03:32:42;99901.60;;;-0.10
70831;BMP180;58451;51.550;7.208;2023-03-11T03:34:16;99903.20;;;-0.10
70831;BMP180;58451;51.550;7.208;2023-03-11T03:35:47;99903.40;;;-0.10
70831;BMP180;58451;51.550;7.208;2023-03-11T03:37:26;99904.20;;;-0.02
70831;BMP180;58451;51.550;7.208;2023-03-11T03:38:58;99903.80;;;0.00
70831;BMP180;58451;51.550;7.208;2023-03-11T03:40:33;99901.00;;;0.00
70831;BMP180;58451;51.550;7.208;2023-03-11T03:42:07;99903.00;;;0.00
70831;BMP180;58451;51.550;7.208;2023-03-11T03:43:41;99906.60;;;0.00
70831;BMP180;58451;51.550;7.208;2023-03-11T03:45:13;99906.00;;;0.00
70831;BMP180;58451;51.550;7.208;2023-03-11T03:46:45;99905.60;;;0.00
70831;BMP180;58451;51.550;7.208;2023-03-11T03:48:17;99910.00;;;0.04
70831;BMP180;58451;51.550;7.208;2023-03-11T03:49:48;99913.20;;;0.06
70831;BMP180;58451;51.550;7.208;2023-03-11T03:51:20;99913.60;;;0.06
70831;BMP180;58451;51.550;7.208;2023-03-11T03:53:04;99920.60;;;0.10
70831;BMP180;58451;51.550;7.208;2023-03-11T03:54:36;99917.40;;;0.10
70831;BMP180;58451;51.550;7.208;2023-03-11T03:56:14;99924.80;;;0.10
70831;BMP180;58451;51.550;7.208;2023-03-11T03:57:46;99919.60;;;0.10
70831;BMP180;58451;51.550;7.208;2023-03-11T03:59:18;99924.00;;;0.10
70831;BMP180;58451;51.550;7.208;2023-03-11T04:00:57;99924.20;;;0.10
70831;BMP180;58451;51.550;7.208;2023-03-11T04:02:30;99924.40;;;0.10
70831;BMP180;58451;51.550;7.208;2023-03-11T04:04:02;99927.60;;;0.10
70831;BMP180;58451;51.550;7.208;2023-03-11T04:05:34;99928.40;;;0.12
70831;BMP180;58451;51.550;7.208;2023-03-11T04:07:07;99927.20;;;0.10
70831;BMP180;58451;51.550;7.208;2023-03-11T04:08:38;99930.40;;;0.10
70831;BMP180;58451;51.550;7.208;2023-03-11T04:12:25;99938.40;;;0.10
70831;BMP180;58451;51.550;7.208;2023-03-11T04:13:57;99933.40;;;0.10
70831;BMP180;58451;51.550;7.208;2023-03-11T04:15:29;99938.80;;;0.10
70831;BMP180;58451;51.550;7.208;2023-03-11T04:17:01;99942.60;;;0.10
70831;BMP180;58451;51.550;7.208;2023-03-11T04:18:34;99943.40;;;0.12
70831;BMP180;58451;51.550;7.208;2023-03-11T04:20:08;99948.00;;;0.10
70831;BMP180;58451;51.550;7.208;2023-03-11T04:21:43;99946.40;;;0.10
70831;BMP180;58451;51.550;7.208;2023-03-11T04:23:16;99953.00;;;0.10
70831;BMP180;58451;51.550;7.208;2023-03-11T04:24:47;99952.60;;;0.10
70831;BMP180;58451;51.550;7.208;2023-03-11T04:26:19;99958.40;;;0.12
70831;BMP180;58451;51.550;7.208;2023-03-11T04:27:51;99954.00;;;0.14
70831;BMP180;58451;51.550;7.208;2023-03-11T04:29:23;99955.60;;;0.10
70831;BMP180;58451;51.550;7.208;2023-03-11T04:30:56;99955.00;;;0.10
70831;BMP180;58451;51.550;7.208;2023-03-11T04:32:27;99955.80;;;0.10
70831;BMP180;58451;51.550;7.208;2023-03-11T04:33:59;99956.20;;;0.10
70831;BMP180;58451;51.550;7.208;2023-03-11T04:35:31;99962.60;;;0.10
70831;BMP180;58451;51.550;7.208;2023-03-11T04:37:03;99960.80;;;0.10
70831;BMP180;58451;51.550;7.208;2023-03-11T04:38:36;99963.20;;;0.10
70831;BMP180;58451;51.550;7.208;2023-03-11T04:40:09;99971.60;;;0.10
70831;BMP180;58451;51.550;7.208;2023-03-11T04:41:41;99971.80;;;0.10
70831;BMP180;58451;51.550;7.208;2023-03-11T04:43:15;99968.80;;;0.10
70831;BMP180;58451;51.550;7.208;2023-03-11T04:44:47;99974.20;;;0.10
70831;BMP180;58451;51.550;7.208;2023-03-11T04:46:19;99976.40;;;0.10
70831;BMP180;58451;51.550;7.208;2023-03-11T04:47:51;99975.00;;;0.10
70831;BMP180;58451;51.550;7.208;2023-03-11T04:49:22;99979.60;;;0.06
70831;BMP180;58451;51.550;7.208;2023-03-11T04:50:54;99977.80;;;0.10
70831;BMP180;58451;51.550;7.208;2023-03-11T04:52:26;99985.40;;;0.10
70831;BMP180;58451;51.550;7.208;2023-03-11T04:53:58;99984.00;;;0.10
70831;BMP180;58451;51.550;7.208;2023-03-11T04:55:31;99986.60;;;0.10
70831;BMP180;58451;51.550;7.208;2023-03-11T04:57:04;99987.60;;;0.10
70831;BMP180;58451;51.550;7.208;2023-03-11T04:58:36;99997.80;;;0.10
70831;BMP180;58451;51.550;7.208;2023-03-11T05:00:13;99990.20;;;0.08
70831;BMP180;58451;51.550;7.208;2023-03-11T05:01:48;99995.00;;;0.08
70831;BMP180;58451;51.550;7.208;2023-03-11T05:03:20;99999.40;;;0.06
70831;BMP180;58451;51.550;7.208;2023-03-11T05:04:52;99999.40;;;0.02
70831;BMP180;58451;51.550;7.208;2023-03-11T05:06:23;100007.40;;;0.04
70831;BMP180;58451;51.550;7.208;2023-03-11T05:07:55;100012.40;;;0.00
70831;BMP180;58451;51.550;7.208;2023-03-11T05:09:27;100013.20;;;0.02
70831;BMP180;58451;51.550;7.208;2023-03-11T05:10:59;100014.60;;;0.00
70831;BMP180;58451;51.550;7.208;2023-03-11T05:12:32;100016.80;;;0.00
70831;BMP180;58451;51.550;7.208;2023-03-11T05:14:03;100010.20;;;0.00
70831;BMP180;58451;51.550;7.208;2023-03-11T05:15:35;100015.40;;;0.00
70831;BMP180;58451;51.550;7.208;2023-03-11T05:17:09;100012.00;;;0.00
70831;BMP180;58451;51.550;7.208;2023-03-11T05:18:43;100014.40;;;0.00
70831;BMP180;58451;51.550;7.208;2023-03-11T05:20:17;100013.00;;;0.00
70831;BMP180;58451;51.550;7.208;2023-03-11T05:21:49;100015.40;;;0.00
70831;BMP180;58451;51.550;7.208;2023-03-11T05:23:21;100017.80;;;-0.04
70831;BMP180;58451;51.550;7.208;2023-03-11T05:24:52;100017.20;;;-0.10
70831;BMP180;58451;51.550;7.208;2023-03-11T05:26:24;100020.20;;;-0.10
70831;BMP180;58451;51.550;7.208;2023-03-11T05:27:57;100027.80;;;-0.10
70831;BMP180;58451;51.550;7.208;2023-03-11T05:29:29;100028.60;;;-0.10
70831;BMP180;58451;51.550;7.208;2023-03-11T05:31:08;100028.20;;;-0.10
70831;BMP180;58451;51.550;7.208;2023-03-11T05:32:41;100025.80;;;-0.10
70831;BMP180;58451;51.550;7.208;2023-03-11T05:34:14;100028.20;;;-0.10
70831;BMP180;58451;51.550;7.208;2023-03-11T05:35:46;100034.60;;;-0.10
70831;BMP180;58451;51.550;7.208;2023-03-11T05:37:19;100028.60;;;-0.10
70831;BMP180;58451;51.550;7.208;2023-03-11T05:38:51;100025.80;;;-0.10
70831;BMP180;58451;51.550;7.208;2023-03-11T05:40:24;100027.20;;;-0.10
70831;BMP180;58451;51.550;7.208;2023-03-11T05:41:56;100027.00;;;-0.10
70831;BMP180;58451;51.550;7.208;2023-03-11T05:43:28;100030.80;;;-0.10
70831;BMP180;58451;51.550;7.208;2023-03-11T05:45:00;100031.60;;;-0.10
70831;BMP180;58451;51.550;7.208;2023-03-11T05:46:32;100026.00;;;-0.10
70831;BMP180;58451;51.550;7.208;2023-03-11T05:48:05;100028.00;;;-0.10
70831;BMP180;58451;51.550;7.208;2023-03-11T05:49:37;100031.60;;;-0.10
70831;BMP180;58451;51.550;7.208;2023-03-11T05:51:10;100028.00;;;-0.10
70831;BMP180;58451;51.550;7.208;2023-03-11T05:52:43;100025.00;;;-0.10
70831;BMP180;58451;51.550;7.208;2023-03-11T05:54:16;100030.60;;;-0.10
70831;BMP180;58451;51.550;7.208;2023-03-11T05:55:58;100036.60;;;-0.10
70831;BMP180;58451;51.550;7.208;2023-03-11T05:57:31;100039.40;;;-0.10
70831;BMP180;58451;51.550;7.208;2023-03-11T05:59:02;100038.00;;;-0.10
70831;BMP180;58451;51.550;7.208;2023-03-11T06:00:36;100039.80;;;-0.10
70831;BMP180;58451;51.550;7.208;2023-03-11T06:02:08;100039.20;;;-0.10
70831;BMP180;58451;51.550;7.208;2023-03-11T06:03:41;100043.40;;;-0.08
70831;BMP180;58451;51.550;7.208;2023-03-11T06:05:13;100045.40;;;-0.10
70831;BMP180;58451;51.550;7.208;2023-03-11T06:06:46;100053.00;;;-0.10
70831;BMP180;58451;51.550;7.208;2023-03-11T06:08:20;100051.20;;;-0.10
70831;BMP180;58451;51.550;7.208;2023-03-11T06:09:52;100050.80;;;-0.10
70831;BMP180;58451;51.550;7.208;2023-03-11T06:11:24;100052.40;;;-0.10
70831;BMP180;58451;51.550;7.208;2023-03-11T06:12:56;100045.20;;;-0.10
70831;BMP180;58451;51.550;7.208;2023-03-11T06:14:38;100048.60;;;-0.10
70831;BMP180;58451;51.550;7.208;2023-03-11T06:16:10;100046.20;;;-0.10
70831;BMP180;58451;51.550;7.208;2023-03-11T06:17:41;100053.60;;;-0.10
70831;BMP180;58451;51.550;7.208;2023-03-11T06:19:13;100051.40;;;-0.10
70831;BMP180;58451;51.550;7.208;2023-03-11T06:20:48;100058.00;;;-0.10
70831;BMP180;58451;51.550;7.208;2023-03-11T06:22:20;100059.40;;;-0.10
70831;BMP180;58451;51.550;7.208;2023-03-11T06:23:53;100055.60;;;-0.10
70831;BMP180;58451;51.550;7.208;2023-03-11T06:25:26;100057.00;;;-0.10
70831;BMP180;58451;51.550;7.208;2023-03-11T06:26:57;100059.40;;;-0.14
70831;BMP180;58451;51.550;7.208;2023-03-11T06:28:31;100061.40;;;-0.10
70831;BMP180;58451;51.550;7.208;2023-03-11T06:30:04;100062.00;;;-0.10
70831;BMP180;58451;51.550;7.208;2023-03-11T06:31:40;100063.80;;;-0.10
70831;BMP180;58451;51.550;7.208;2023-03-11T06:33:13;100068.20;;;-0.10
70831;BMP180;58451;51.550;7.208;2023-03-11T06:34:50;100069.60;;;-0.10
70831;BMP180;58451;51.550;7.208;2023-03-11T06:36:24;100074.60;;;-0.10
70831;BMP180;58451;51.550;7.208;2023-03-11T06:37:56;100080.40;;;-0.10
70831;BMP180;58451;51.550;7.208;2023-03-11T06:39:28;100083.20;;;-0.10
70831;BMP180;58451;51.550;7.208;2023-03-11T06:41:02;100085.20;;;-0.06
70831;BMP180;58451;51.550;7.208;2023-03-11T06:42:35;100088.00;;;0.00
70831;BMP180;58451;51.550;7.208;2023-03-11T06:44:09;100095.40;;;0.00
70831;BMP180;58451;51.550;7.208;2023-03-11T06:45:42;100097.00;;;0.00
70831;BMP180;58451;51.550;7.208;2023-03-11T06:47:14;100094.80;;;0.00
70831;BMP180;58451;51.550;7.208;2023-03-11T06:48:47;100091.60;;;0.00
70831;BMP180;58451;51.550;7.208;2023-03-11T06:50:23;100099.80;;;0.06
70831;BMP180;58451;51.550;7.208;2023-03-11T06:51:56;100097.80;;;0.10
70831;BMP180;58451;51.550;7.208;2023-03-11T06:53:29;100102.00;;;0.10
70831;BMP180;58451;51.550;7.208;2023-03-11T06:55:01;100100.80;;;0.10
70831;BMP180;58451;51.550;7.208;2023-03-11T06:56:34;100106.40;;;0.12
70831;BMP180;58451;51.550;7.208;2023-03-11T06:58:09;100112.40;;;0.20
70831;BMP180;58451;51.550;7.208;2023-03-11T06:59:43;100113.60;;;0.20
70831;BMP180;58451;51.550;7.208;2023-03-11T07:01:21;100118.60;;;0.28
70831;BMP180;58451;51.550;7.208;2023-03-11T07:02:53;100115.60;;;0.30
70831;BMP180;58451;51.550;7.208;2023-03-11T07:04:26;100113.00;;;0.30
70831;BMP180;58451;51.550;7.208;2023-03-11T07:05:59;100111.00;;;0.32
70831;BMP180;58451;51.550;7.208;2023-03-11T07:07:31;100119.60;;;0.40
70831;BMP180;58451;51.550;7.208;2023-03-11T07:09:04;100121.60;;;0.40
70831;BMP180;58451;51.550;7.208;2023-03-11T07:10:36;100124.00;;;0.40
70831;BMP180;58451;51.550;7.208;2023-03-11T07:12:08;100124.20;;;0.50
70831;BMP180;58451;51.550;7.208;2023-03-11T07:13:41;100127.40;;;0.50
70831;BMP180;58451;51.550;7.208;2023-03-11T07:15:13;100129.00;;;0.50
70831;BMP180;58451;51.550;7.208;2023-03-11T07:16:46;100133.00;;;0.60
70831;BMP180;58451;51.550;7.208;2023-03-11T07:18:24;100137.00;;;0.60
70831;BMP180;58451;51.550;7.208;2023-03-11T07:19:56;100141.40;;;0.70
70831;BMP180;58451;51.550;7.208;2023-03-11T07:21:30;100141.80;;;0.70
70831;BMP180;58451;51.550;7.208;2023-03-11T07:23:03;100150.20;;;0.80
70831;BMP180;58451;51.550;7.208;2023-03-11T07:24:34;100153.60;;;0.80
70831;BMP180;58451;51.550;7.208;2023-03-11T07:26:12;100157.60;;;0.90
70831;BMP180;58451;51.550;7.208;2023-03-11T07:27:44;100161.60;;;1.00
70831;BMP180;58451;51.550;7.208;2023-03-11T07:29:16;100159.80;;;1.00
70831;BMP180;58451;51.550;7.208;2023-03-11T07:30:48;100167.00;;;1.10
70831;BMP180;58451;51.550;7.208;2023-03-11T07:32:20;100170.60;;;1.10
70831;BMP180;58451;51.550;7.208;2023-03-11T07:33:53;100166.60;;;1.20
70831;BMP180;58451;51.550;7.208;2023-03-11T07:35:24;100171.20;;;1.20
70831;BMP180;58451;51.550;7.208;2023-03-11T07:36:56;100171.00;;;1.30
70831;BMP180;58451;51.550;7.208;2023-03-11T07:38:28;100167.40;;;1.30
70831;BMP180;58451;51.550;7.208;2023-03-11T07:40:00;100171.80;;;1.40
70831;BMP180;58451;51.550;7.208;2023-03-11T07:41:34;100176.00;;;1.40
70831;BMP180;58451;51.550;7.208;2023-03-11T07:43:06;100176.20;;;1.40
70831;BMP180;58451;51.550;7.208;2023-03-11T07:44:38;100176.00;;;1.50
70831;BMP180;58451;51.550;7.208;2023-03-11T07:46:13;100186.00;;;1.52
70831;BMP180;58451;51.550;7.208;2023-03-11T07:47:53;100186.60;;;1.60
70831;BMP180;58451;51.550;7.208;2023-03-11T07:49:25;100186.60;;;1.70
70831;BMP180;58451;51.550;7.208;2023-03-11T07:52:38;100189.00;;;1.72
70831;BMP180;58451;51.550;7.208;2023-03-11T07:54:11;100188.80;;;1.76
70831;BMP180;58451;51.550;7.208;2023-03-11T07:55:43;100195.60;;;1.80
70831;BMP180;58451;51.550;7.208;2023-03-11T07:57:15;100201.00;;;1.80
70831;BMP180;58451;51.550;7.208;2023-03-11T07:58:48;100201.60;;;1.82
70831;BMP180;58451;51.550;7.208;2023-03-11T08:00:20;100201.80;;;1.86
70831;BMP180;58451;51.550;7.208;2023-03-11T08:01:52;100202.60;;;1.90
70831;BMP180;58451;51.550;7.208;2023-03-11T08:03:24;100208.60;;;1.90
70831;BMP180;58451;51.550;7.208;2023-03-11T08:04:56;100206.20;;;1.90
70831;BMP180;58451;51.550;7.208;2023-03-11T08:06:30;100216.00;;;2.00
70831;BMP180;58451;51.550;7.208;2023-03-11T08:08:03;100211.60;;;2.00
70831;BMP180;58451;51.550;7.208;2023-03-11T08:09:35;100214.80;;;2.08
70831;BMP180;58451;51.550;7.208;2023-03-11T08:11:10;100217.60;;;2.10
70831;BMP180;58451;51.550;7.208;2023-03-11T08:12:43;100216.80;;;2.10
70831;BMP180;58451;51.550;7.208;2023-03-11T08:14:15;100219.20;;;2.20
70831;BMP180;58451;51.550;7.208;2023-03-11T08:15:47;100216.60;;;2.20
70831;BMP180;58451;51.550;7.208;2023-03-11T08:17:19;100223.60;;;2.30
70831;BMP180;58451;51.550;7.208;2023-03-11T08:18:51;100229.00;;;2.30
70831;BMP180;58451;51.550;7.208;2023-03-11T08:20:23;100228.00;;;2.38
70831;BMP180;58451;51.550;7.208;2023-03-11T08:21:55;100229.60;;;2.40
70831;BMP180;58451;51.550;7.208;2023-03-11T08:23:27;100228.60;;;2.46
70831;BMP180;58451;51.550;7.208;2023-03-11T08:25:00;100229.40;;;2.50
70831;BMP180;58451;51.550;7.208;2023-03-11T08:26:32;100235.20;;;2.50
70831;BMP180;58451;51.550;7.208;2023-03-11T08:28:05;100225.40;;;2.52
70831;BMP180;58451;51.550;7.208;2023-03-11T08:29:38;100226.20;;;2.60
70831;BMP180;58451;51.550;7.208;2023-03-11T08:31:22;100228.80;;;2.60
70831;BMP180;58451;51.550;7.208;2023-03-11T08:32:56;100228.60;;;2.70
70831;BMP180;58451;51.550;7.208;2023-03-11T08:34:28;100227.40;;;2.70
70831;BMP180;58451;51.550;7.208;2023-03-11T08:36:00;100233.00;;;2.80
70831;BMP180;58451;51.550;7.208;2023-03-11T08:37:32;100227.60;;;2.80
70831;BMP180;58451;51.550;7.208;2023-03-11T08:39:04;100239.20;;;2.88
70831;BMP180;58451;51.550;7.208;2023-03-11T08:40:35;100245.20;;;2.90
70831;BMP180;58451;51.550;7.208;2023-03-11T08:42:07;100242.40;;;3.00
70831;BMP180;58451;51.550;7.208;2023-03-11T08:43:39;100236.40;;;3.00
70831;BMP180;58451;51.550;7.208;2023-03-11T08:45:12;100237.00;;;3.10
70831;BMP180;58451;51.550;7.208;2023-03-11T08:46:44;100236.20;;;3.10
70831;BMP180;58451;51.550;7.208;2023-03-11T08:48:18;100239.40;;;3.10
70831;BMP180;58451;51.550;7.208;2023-03-11T08:49:50;100237.20;;;3.10
70831;BMP180;58451;51.550;7.208;2023-03-11T08:51:24;100234.80;;;3.14
70831;BMP180;58451;51.550;7.208;2023-03-11T08:52:56;100233.60;;;3.14
70831;BMP180;58451;51.550;7.208;2023-03-11T08:54:32;100244.80;;;3.20
70831;BMP180;58451;51.550;7.208;2023-03-11T08:56:04;100241.20;;;3.20
70831;BMP180;58451;51.550;7.208;2023-03-11T08:57:36;100244.40;;;3.20
70831;BMP180;58451;51.550;7.208;2023-03-11T08:59:09;100245.40;;;3.20
70831;BMP180;58451;51.550;7.208;2023-03-11T09:00:43;100239.40;;;3.30
70831;BMP180;58451;51.550;7.208;2023-03-11T09:02:16;100241.00;;;3.30
70831;BMP180;58451;51.550;7.208;2023-03-11T09:03:48;100241.00;;;3.36
70831;BMP180;58451;51.550;7.208;2023-03-11T09:05:20;100243.60;;;3.30